createdAt,value
2023-08-14T00:02:11.838Z,16.40
2023-08-14T00:04:38.965Z,13.30
2023-08-14T00:07:06.238Z,15.40
2023-08-14T00:09:33.393Z,15.20
2023-08-14T00:12:03.896Z,15.90
2023-08-14T00:14:31.094Z,14.90
2023-08-14T00:16:58.184Z,13.10
2023-08-14T00:19:25.479Z,12.70
2023-08-14T00:21:52.540Z,13.50
2023-08-14T00:24:19.666Z,12.70
2023-08-14T00:26:46.816Z,12.60
2023-08-14T00:29:13.901Z,14.30
2023-08-14T00:31:42.754Z,12.10
2023-08-14T00:34:09.983Z,13.00
2023-08-14T00:36:37.160Z,13.60
2023-08-14T00:39:06.064Z,12.90
2023-08-14T00:41:33.561Z,13.00
2023-08-14T00:44:00.699Z,13.40
2023-08-14T00:46:28.043Z,13.60
2023-08-14T00:48:55.561Z,13.50
2023-08-14T00:51:22.965Z,12.20
2023-08-14T00:53:50.915Z,13.20
2023-08-14T00:56:18.615Z,11.60
2023-08-14T00:58:45.730Z,10.60
2023-08-14T01:01:12.971Z,12.60
2023-08-14T01:03:41.341Z,13.60
2023-08-14T01:06:08.686Z,13.20
2023-08-14T01:08:36.054Z,14.00
2023-08-14T01:11:24.424Z,16.90
2023-08-14T01:14:21.185Z,13.90
2023-08-14T01:16:52.847Z,14.40
2023-08-14T01:19:26.185Z,15.10
2023-08-14T01:22:12.635Z,15.70
2023-08-14T01:24:52.556Z,14.80
2023-08-14T01:27:20.514Z,10.60
2023-08-14T01:29:58.519Z,10.70
2023-08-14T01:32:25.719Z,12.50
2023-08-14T01:34:53.288Z,9.90
2023-08-14T01:37:34.424Z,16.90
2023-08-14T01:40:10.974Z,12.20
2023-08-14T01:42:40.420Z,12.70
2023-08-14T01:45:14.171Z,11.70
2023-08-14T01:47:41.512Z,13.10
2023-08-14T01:50:08.931Z,12.10
2023-08-14T01:52:36.007Z,13.70
2023-08-14T01:55:03.926Z,12.20
2023-08-14T01:57:32.472Z,12.20
2023-08-14T01:59:59.544Z,10.20
2023-08-14T02:02:27.548Z,12.60
2023-08-14T02:04:58.391Z,12.00
2023-08-14T02:07:25.540Z,12.20
2023-08-14T02:09:56.490Z,12.20
2023-08-14T02:12:23.694Z,11.20
2023-08-14T02:14:50.906Z,12.80
2023-08-14T02:17:19.506Z,14.40
2023-08-14T02:19:47.125Z,14.00
2023-08-14T02:22:14.306Z,15.30
2023-08-14T02:24:41.493Z,18.10
2023-08-14T02:27:08.622Z,14.50
2023-08-14T02:29:35.978Z,14.40
2023-08-14T02:32:03.120Z,15.80
2023-08-14T02:34:49.746Z,15.10
2023-08-14T02:37:18.157Z,13.60
2023-08-14T02:39:45.479Z,18.70
2023-08-14T02:42:13.376Z,18.20
2023-08-14T02:44:40.541Z,17.90
2023-08-14T02:47:07.652Z,17.00
2023-08-14T02:49:34.876Z,20.60
2023-08-14T02:52:02.069Z,22.60
2023-08-14T02:54:29.244Z,22.60
2023-08-14T02:56:56.398Z,31.20
2023-08-14T02:59:23.724Z,35.70
2023-08-14T03:01:50.819Z,33.30
2023-08-14T03:04:18.456Z,35.70
2023-08-14T03:06:46.514Z,32.00
2023-08-14T03:09:13.754Z,30.00
2023-08-14T03:11:40.928Z,30.80
2023-08-14T03:14:08.575Z,32.60
2023-08-14T03:16:35.771Z,27.70
2023-08-14T03:19:03.345Z,27.70
2023-08-14T03:21:30.550Z,23.20
2023-08-14T03:23:57.744Z,23.00
2023-08-14T03:26:24.930Z,20.70
2023-08-14T03:28:52.204Z,22.00
2023-08-14T03:31:19.414Z,18.90
2023-08-14T03:33:46.658Z,23.60
2023-08-14T03:36:15.741Z,23.40
2023-08-14T03:38:42.868Z,21.30
2023-08-14T03:41:11.787Z,24.60
2023-08-14T03:43:38.992Z,28.00
2023-08-14T03:46:06.120Z,30.70
2023-08-14T03:48:33.296Z,20.10
2023-08-14T03:51:00.348Z,14.40
2023-08-14T03:53:27.437Z,16.10
2023-08-14T03:55:54.583Z,18.60
2023-08-14T03:58:21.812Z,13.30
2023-08-14T04:00:48.881Z,13.10
2023-08-14T04:03:16.204Z,11.50
2023-08-14T04:05:44.534Z,19.60
2023-08-14T04:08:12.416Z,21.30
2023-08-14T04:10:40.463Z,21.10
2023-08-14T04:13:11.527Z,17.70
2023-08-14T04:15:38.877Z,14.90
2023-08-14T04:18:06.205Z,20.60
2023-08-14T04:20:33.587Z,18.30
2023-08-14T04:23:00.674Z,20.70
2023-08-14T04:25:27.777Z,20.40
2023-08-14T04:27:55.935Z,19.20
2023-08-14T04:30:23.123Z,20.20
2023-08-14T04:32:51.053Z,17.20
2023-08-14T04:35:18.662Z,18.20
2023-08-14T04:37:47.571Z,17.30
2023-08-14T04:40:14.689Z,15.20
2023-08-14T04:42:42.925Z,15.20
2023-08-14T04:45:11.941Z,13.40
2023-08-14T04:47:39.064Z,12.60
2023-08-14T04:50:07.304Z,16.30
2023-08-14T04:52:34.473Z,20.30
2023-08-14T04:55:01.850Z,18.80
2023-08-14T04:57:33.413Z,16.30
2023-08-14T05:00:00.807Z,14.70
2023-08-14T05:02:30.675Z,12.80
2023-08-14T05:04:57.989Z,12.10
2023-08-14T05:07:27.467Z,10.60
2023-08-14T05:09:55.138Z,11.30
2023-08-14T05:12:22.419Z,10.50
2023-08-14T05:14:49.577Z,12.80
2023-08-14T05:17:18.048Z,11.20
2023-08-14T05:19:45.205Z,11.00
2023-08-14T05:22:12.327Z,10.90
2023-08-14T05:24:39.448Z,10.90
2023-08-14T05:27:06.542Z,11.00
2023-08-14T05:29:33.619Z,10.50
2023-08-14T05:32:01.550Z,12.60
2023-08-14T05:34:28.821Z,10.90
2023-08-14T05:36:55.935Z,11.40
2023-08-14T05:39:23.067Z,10.60
2023-08-14T05:41:51.197Z,10.70
2023-08-14T05:44:18.967Z,10.80
2023-08-14T05:46:48.241Z,11.20
2023-08-14T05:49:18.676Z,10.00
2023-08-14T05:51:46.251Z,11.50
2023-08-14T05:54:13.463Z,10.10
2023-08-14T05:56:41.740Z,10.20
2023-08-14T05:59:09.115Z,11.50
2023-08-14T06:01:36.282Z,9.80
2023-08-14T06:04:03.506Z,11.70
2023-08-14T06:06:31.649Z,10.70
2023-08-14T06:09:01.058Z,9.30
2023-08-14T06:11:29.496Z,12.00
2023-08-14T06:13:56.809Z,10.80
2023-08-14T06:16:24.150Z,10.20
2023-08-14T06:18:51.389Z,10.80
2023-08-14T06:21:21.398Z,11.50
2023-08-14T06:23:48.480Z,12.50
2023-08-14T06:26:16.268Z,11.10
2023-08-14T06:28:43.502Z,10.00
2023-08-14T06:31:10.775Z,10.60
2023-08-14T06:33:38.912Z,11.20
2023-08-14T06:36:06.936Z,10.90
2023-08-14T06:38:35.100Z,10.30
2023-08-14T06:41:02.262Z,8.00
2023-08-14T06:43:29.412Z,10.80
2023-08-14T06:45:56.478Z,10.00
2023-08-14T06:48:23.571Z,11.40
2023-08-14T06:50:50.707Z,7.90
2023-08-14T06:53:19.274Z,9.20
2023-08-14T06:55:48.799Z,8.70
2023-08-14T06:58:15.918Z,9.30
2023-08-14T07:00:42.980Z,8.40
2023-08-14T07:03:10.259Z,14.50
2023-08-14T07:05:37.566Z,8.30
2023-08-14T07:08:05.118Z,9.30
2023-08-14T07:10:32.346Z,9.80
2023-08-14T07:13:00.361Z,8.90
2023-08-14T07:15:28.062Z,8.50
2023-08-14T07:17:55.313Z,8.00
2023-08-14T07:20:25.793Z,7.90
2023-08-14T07:22:55.657Z,8.10
2023-08-14T07:25:25.673Z,8.40
2023-08-14T07:27:52.887Z,7.50
2023-08-14T07:30:20.116Z,10.20
2023-08-14T07:32:47.407Z,8.70
2023-08-14T07:35:14.725Z,8.10
2023-08-14T07:37:41.923Z,7.60
2023-08-14T07:40:09.709Z,9.90
2023-08-14T07:42:36.842Z,11.80
2023-08-14T07:45:04.294Z,9.20
2023-08-14T07:47:31.523Z,7.60
2023-08-14T07:49:58.673Z,7.50
2023-08-14T07:52:26.131Z,7.70
2023-08-14T07:54:53.393Z,7.10
2023-08-14T07:59:49.236Z,7.20
2023-08-14T08:02:16.832Z,8.30
2023-08-14T08:04:44.261Z,8.70
2023-08-14T08:07:11.455Z,7.80
2023-08-14T08:09:38.593Z,6.20
2023-08-14T08:12:06.489Z,8.10
2023-08-14T08:14:35.352Z,7.90
2023-08-14T08:17:07.222Z,7.50
2023-08-14T08:19:34.361Z,7.00
2023-08-14T08:22:01.463Z,7.10
2023-08-14T08:24:28.662Z,7.80
2023-08-14T08:26:55.959Z,7.10
2023-08-14T08:29:23.314Z,7.40
2023-08-14T08:31:50.538Z,8.30
2023-08-14T08:34:17.694Z,8.10
2023-08-14T08:36:44.781Z,7.80
2023-08-14T08:39:11.981Z,6.00
2023-08-14T08:41:45.238Z,6.90
2023-08-14T08:44:24.331Z,8.70
2023-08-14T08:46:56.103Z,6.20
2023-08-14T08:49:23.271Z,9.00
2023-08-14T08:51:50.654Z,9.00
2023-08-14T08:54:17.855Z,6.30
2023-08-14T08:56:44.904Z,7.00
2023-08-14T08:59:13.380Z,6.70
2023-08-14T09:01:42.868Z,7.90
2023-08-14T09:04:10.229Z,8.20
2023-08-14T09:06:38.501Z,5.50
2023-08-14T09:09:05.978Z,9.00
2023-08-14T09:11:33.025Z,6.20
2023-08-14T09:14:00.289Z,7.40
2023-08-14T09:16:28.884Z,6.70
2023-08-14T09:18:59.690Z,5.80
2023-08-14T09:21:28.078Z,8.70
2023-08-14T09:23:55.928Z,6.30
2023-08-14T09:26:23.616Z,9.10
2023-08-14T09:28:50.891Z,7.20
2023-08-14T09:31:18.480Z,8.00
2023-08-14T09:33:46.549Z,8.50
2023-08-14T09:36:14.477Z,6.00
2023-08-14T09:38:41.641Z,6.40
2023-08-14T09:41:10.259Z,6.00
2023-08-14T09:43:37.441Z,5.90
2023-08-14T09:46:04.825Z,6.50
2023-08-14T09:48:48.846Z,6.30
2023-08-14T09:51:17.807Z,6.10
2023-08-14T09:53:49.147Z,6.70
2023-08-14T09:56:18.570Z,7.60
2023-08-14T09:58:48.329Z,8.50
2023-08-14T10:01:20.122Z,7.20
2023-08-14T10:03:58.601Z,7.40
2023-08-14T10:06:26.613Z,7.80
2023-08-14T10:08:56.614Z,6.50
2023-08-14T10:11:24.383Z,7.50
2023-08-14T10:13:54.580Z,6.70
2023-08-14T10:16:29.520Z,7.20
2023-08-14T10:18:57.937Z,6.10
2023-08-14T10:21:30.362Z,6.30
2023-08-14T10:23:58.161Z,6.90
2023-08-14T10:26:27.826Z,7.60
2023-08-14T10:28:55.616Z,5.40
2023-08-14T10:31:22.759Z,5.80
2023-08-14T10:33:49.920Z,7.70
2023-08-14T10:36:21.126Z,6.20
2023-08-14T10:38:48.848Z,5.80
2023-08-14T10:41:17.894Z,6.10
2023-08-14T10:43:48.970Z,6.40
2023-08-14T10:46:16.282Z,5.20
2023-08-14T10:48:45.085Z,5.40
2023-08-14T10:51:14.647Z,5.70
2023-08-14T10:53:42.430Z,5.30
2023-08-14T10:56:11.584Z,6.70
2023-08-14T10:58:39.797Z,6.20
2023-08-14T11:01:08.494Z,8.40
2023-08-14T11:03:55.434Z,6.40
2023-08-14T11:06:27.119Z,7.40
2023-08-14T11:09:02.990Z,7.00
2023-08-14T11:11:30.185Z,5.50
2023-08-14T11:13:58.055Z,4.90
2023-08-14T11:16:25.416Z,4.60
2023-08-14T11:18:52.904Z,6.30
2023-08-14T11:21:31.624Z,5.70
2023-08-14T11:24:00.053Z,5.90
2023-08-14T11:26:33.241Z,5.90
2023-08-14T11:29:00.464Z,6.00
2023-08-14T11:31:34.195Z,6.80
2023-08-14T11:34:02.143Z,5.30
2023-08-14T11:36:34.511Z,5.50
2023-08-14T11:39:02.182Z,5.90
2023-08-14T11:41:32.404Z,6.10
2023-08-14T11:43:59.673Z,5.20
2023-08-14T11:46:27.009Z,5.30
2023-08-14T11:48:54.137Z,6.60
2023-08-14T11:51:21.591Z,11.10
2023-08-14T11:53:49.103Z,4.60
2023-08-14T11:56:16.441Z,5.50
2023-08-14T11:58:47.975Z,5.90
2023-08-14T12:01:19.390Z,6.90
2023-08-14T12:03:47.649Z,6.00
2023-08-14T12:06:14.728Z,6.70
2023-08-14T12:08:42.555Z,7.50
2023-08-14T12:11:11.076Z,6.70
2023-08-14T12:13:39.212Z,4.90
2023-08-14T12:16:11.802Z,7.70
2023-08-14T12:18:47.143Z,5.00
2023-08-14T12:21:14.295Z,6.90
2023-08-14T12:23:48.638Z,6.20
2023-08-14T12:26:16.629Z,4.60
2023-08-14T12:28:44.675Z,6.50
2023-08-14T12:31:12.657Z,8.70
2023-08-14T12:33:44.081Z,5.30
2023-08-14T12:36:12.601Z,4.70
2023-08-14T12:38:39.850Z,5.20
2023-08-14T12:41:07.110Z,6.40
2023-08-14T12:43:40.177Z,4.90
2023-08-14T12:46:12.928Z,5.50
2023-08-14T12:48:40.995Z,6.10
2023-08-14T12:53:41.934Z,5.90
2023-08-14T12:56:09.140Z,4.50
2023-08-14T12:58:36.257Z,11.50
2023-08-14T13:01:05.530Z,6.30
2023-08-14T13:03:36.957Z,5.20
2023-08-14T13:06:06.612Z,7.20
2023-08-14T13:08:33.846Z,4.70
2023-08-14T13:11:00.978Z,5.30
2023-08-14T13:13:28.635Z,7.00
2023-08-14T13:15:56.802Z,5.50
2023-08-14T13:20:51.978Z,4.10
2023-08-14T13:23:19.171Z,6.90
2023-08-14T13:25:46.259Z,7.20
2023-08-14T13:28:13.658Z,5.40
2023-08-14T13:30:43.251Z,6.00
2023-08-14T13:33:12.925Z,4.30
2023-08-14T13:35:40.339Z,5.50
2023-08-14T13:38:07.602Z,5.00
2023-08-14T13:40:35.066Z,5.90
2023-08-14T13:43:02.422Z,4.80
2023-08-14T13:45:30.840Z,4.50
2023-08-14T13:47:58.758Z,4.40
2023-08-14T13:50:33.061Z,7.00
2023-08-14T13:53:04.276Z,5.30
2023-08-14T13:55:32.626Z,6.30
2023-08-14T13:58:00.309Z,6.60
2023-08-14T14:00:30.127Z,5.30
2023-08-14T14:03:00.173Z,4.80
2023-08-14T14:05:28.520Z,5.20
2023-08-14T14:07:57.690Z,5.60
2023-08-14T14:10:26.625Z,6.30
2023-08-14T14:15:24.700Z,6.30
2023-08-14T14:17:51.944Z,5.00
2023-08-14T14:20:19.321Z,9.00
2023-08-14T14:22:47.556Z,5.30
2023-08-14T14:25:14.779Z,5.40
2023-08-14T14:27:41.914Z,5.50
2023-08-14T14:30:09.539Z,4.30
2023-08-14T14:32:36.807Z,5.40
2023-08-14T14:35:04.329Z,6.00
2023-08-14T14:37:32.636Z,5.60
2023-08-14T14:39:59.852Z,7.20
2023-08-14T14:42:26.998Z,5.80
2023-08-14T14:44:55.088Z,7.70
2023-08-14T14:47:25.634Z,4.80
2023-08-14T14:49:53.083Z,5.90
2023-08-14T14:52:20.555Z,5.80
2023-08-14T14:54:48.381Z,5.00
2023-08-14T14:57:18.892Z,4.40
2023-08-14T14:59:48.184Z,5.40
2023-08-14T15:02:27.604Z,5.10
2023-08-14T15:04:56.958Z,4.50
2023-08-14T15:07:24.106Z,6.00
2023-08-14T15:09:51.188Z,4.10
2023-08-14T15:12:18.434Z,5.20
2023-08-14T15:14:46.014Z,7.00
2023-08-14T15:17:15.886Z,5.70
2023-08-14T15:19:43.647Z,5.40
2023-08-14T15:22:10.775Z,6.40
2023-08-14T15:24:37.856Z,4.90
2023-08-14T15:29:35.069Z,8.00
2023-08-14T15:32:02.266Z,7.80
2023-08-14T15:34:30.674Z,4.90
2023-08-14T15:36:58.765Z,5.40
2023-08-14T15:39:30.711Z,5.60
2023-08-14T15:41:57.867Z,6.10
2023-08-14T15:44:25.807Z,5.80
2023-08-14T15:46:53.048Z,5.90
2023-08-14T15:49:20.662Z,6.30
2023-08-14T15:51:47.813Z,6.20
2023-08-14T15:54:14.925Z,5.60
2023-08-14T15:56:42.178Z,7.50
2023-08-14T15:59:11.080Z,8.70
2023-08-14T16:01:38.174Z,8.50
2023-08-14T16:04:05.621Z,7.40
2023-08-14T16:06:32.842Z,6.60
2023-08-14T16:08:59.929Z,7.40
2023-08-14T16:11:27.103Z,7.10
2023-08-14T16:13:54.342Z,6.90
2023-08-14T16:16:21.480Z,5.30
2023-08-14T16:18:48.718Z,5.70
2023-08-14T16:21:15.852Z,5.90
2023-08-14T16:23:43.001Z,7.30
2023-08-14T16:26:10.095Z,6.10
2023-08-14T16:28:37.270Z,5.90
2023-08-14T16:31:06.247Z,6.10
2023-08-14T16:33:33.413Z,5.90
2023-08-14T16:36:00.668Z,5.20
2023-08-14T16:38:27.759Z,6.60
2023-08-14T16:40:54.889Z,6.30
2023-08-14T16:43:22.011Z,6.80
2023-08-14T16:45:49.591Z,4.70
2023-08-14T16:48:17.887Z,6.30
2023-08-14T16:50:45.375Z,7.70
2023-08-14T16:53:12.562Z,8.80
2023-08-14T16:55:41.445Z,6.40
2023-08-14T16:58:08.533Z,8.00
2023-08-14T17:00:35.851Z,6.80
2023-08-14T17:03:04.022Z,8.30
2023-08-14T17:05:32.663Z,10.00
2023-08-14T17:10:27.672Z,6.90
2023-08-14T17:12:54.797Z,7.30
2023-08-14T17:15:22.708Z,8.40
2023-08-14T17:17:52.830Z,7.20
2023-08-14T17:20:20.142Z,9.00
2023-08-14T17:22:47.356Z,9.00
2023-08-14T17:25:14.739Z,7.10
2023-08-14T17:27:43.270Z,7.90
2023-08-14T17:30:10.671Z,10.70
2023-08-14T17:32:39.639Z,9.90
2023-08-14T17:35:07.097Z,9.30
2023-08-14T17:37:34.242Z,8.40
2023-08-14T17:40:02.726Z,9.70
2023-08-14T17:42:30.177Z,9.90
2023-08-14T17:44:57.298Z,6.20
2023-08-14T17:47:25.241Z,8.80
2023-08-14T17:52:22.804Z,8.20
2023-08-14T17:54:49.950Z,9.10
2023-08-14T17:57:17.091Z,8.70
2023-08-14T17:59:44.872Z,10.10
2023-08-14T18:02:12.129Z,7.50
2023-08-14T18:04:39.269Z,8.00
2023-08-14T18:07:06.381Z,6.30
2023-08-14T18:09:34.092Z,6.70
2023-08-14T18:12:01.289Z,7.90
2023-08-14T18:14:28.432Z,8.90
2023-08-14T18:16:55.896Z,6.50
2023-08-14T18:19:29.741Z,7.30
2023-08-14T18:21:58.605Z,6.80
2023-08-14T18:24:27.216Z,7.60
2023-08-14T18:26:54.761Z,7.50
2023-08-14T18:29:22.888Z,8.20
2023-08-14T18:31:50.612Z,8.70
2023-08-14T18:34:22.760Z,10.10
2023-08-14T18:36:49.954Z,7.90
2023-08-14T18:39:17.108Z,10.40
2023-08-14T18:41:45.015Z,7.90
2023-08-14T18:44:12.357Z,6.40
2023-08-14T18:46:39.579Z,6.70
2023-08-14T18:49:06.931Z,6.20
2023-08-14T18:51:34.042Z,6.30
2023-08-14T18:54:02.880Z,5.80
2023-08-14T18:56:30.063Z,8.00
2023-08-14T18:58:59.349Z,5.90
2023-08-14T19:01:26.548Z,6.20
2023-08-14T19:03:53.782Z,5.60
2023-08-14T19:06:20.913Z,8.20
2023-08-14T19:08:50.225Z,6.20
2023-08-14T19:11:17.565Z,6.80
2023-08-14T19:13:44.719Z,8.60
2023-08-14T19:16:11.981Z,8.80
2023-08-14T19:18:39.407Z,8.10
2023-08-14T19:21:07.492Z,10.80
2023-08-14T19:23:34.668Z,11.80
2023-08-14T19:26:08.993Z,7.70
2023-08-14T19:28:42.488Z,7.60
2023-08-14T19:31:09.810Z,7.80
2023-08-14T19:33:37.104Z,8.50
2023-08-14T19:36:05.161Z,8.60
2023-08-14T19:38:32.768Z,7.50
2023-08-14T19:41:01.980Z,8.10
2023-08-14T19:43:29.658Z,8.60
2023-08-14T19:45:56.774Z,10.60
2023-08-14T19:48:23.891Z,14.00
2023-08-14T19:50:51.281Z,10.50
2023-08-14T19:53:18.494Z,10.10
2023-08-14T19:55:45.543Z,9.20
2023-08-14T19:58:16.781Z,8.60
2023-08-14T20:00:43.907Z,8.40
2023-08-14T20:03:11.443Z,8.20
2023-08-14T20:05:39.771Z,6.80
2023-08-14T20:08:07.054Z,7.60
2023-08-14T20:10:34.168Z,7.00
2023-08-14T20:13:01.293Z,6.50
2023-08-14T20:15:28.549Z,7.60
2023-08-14T20:17:55.883Z,6.80
2023-08-14T20:20:23.655Z,8.00
2023-08-14T20:22:51.700Z,7.30
2023-08-14T20:25:19.292Z,6.70
2023-08-14T20:27:46.327Z,7.90
2023-08-14T20:30:14.467Z,8.30
2023-08-14T20:32:41.559Z,7.40
2023-08-14T20:35:09.732Z,7.60
2023-08-14T20:37:37.673Z,7.70
2023-08-14T20:40:06.302Z,7.20
2023-08-14T20:42:33.494Z,7.60
2023-08-14T20:45:00.636Z,7.90
2023-08-14T20:47:27.791Z,8.20
2023-08-14T20:49:55.207Z,7.80
2023-08-14T20:52:23.606Z,7.70
2023-08-14T20:54:51.275Z,7.00
2023-08-14T20:57:19.562Z,9.80
2023-08-14T20:59:48.771Z,7.80
2023-08-14T21:02:20.230Z,8.40
2023-08-14T21:04:48.154Z,7.50
2023-08-14T21:07:15.382Z,7.70
2023-08-14T21:09:42.538Z,8.90
2023-08-14T21:12:09.996Z,8.60
2023-08-14T21:14:37.183Z,8.40
2023-08-14T21:17:04.322Z,9.50
2023-08-14T21:19:31.500Z,8.00
2023-08-14T21:21:58.759Z,7.40
2023-08-14T21:24:25.866Z,8.80
2023-08-14T21:26:53.032Z,8.80
2023-08-14T21:29:20.707Z,9.70
2023-08-14T21:31:48.164Z,11.30
2023-08-14T21:34:17.432Z,8.80
2023-08-14T21:36:44.564Z,8.80
2023-08-14T21:39:11.789Z,9.50
2023-08-14T21:41:38.925Z,8.70
2023-08-14T21:44:06.252Z,8.10
2023-08-14T21:46:35.216Z,9.00
2023-08-14T21:49:02.743Z,12.10
2023-08-14T21:51:30.019Z,10.60
2023-08-14T21:53:57.203Z,8.00
2023-08-14T21:56:24.276Z,9.60
2023-08-14T21:58:51.392Z,8.30
2023-08-14T22:01:18.550Z,9.40
2023-08-14T22:03:45.703Z,9.00
2023-08-14T22:06:13.661Z,8.30
2023-08-14T22:08:40.757Z,8.00
2023-08-14T22:11:07.838Z,10.30
2023-08-14T22:13:35.692Z,12.70
2023-08-14T22:16:02.904Z,9.00
2023-08-14T22:18:30.280Z,9.40
2023-08-14T22:20:57.445Z,8.40
2023-08-14T22:23:24.587Z,9.00
2023-08-14T22:25:51.650Z,8.90
2023-08-14T22:28:18.738Z,7.80
2023-08-14T22:30:45.816Z,9.00
2023-08-14T22:33:12.955Z,8.20
2023-08-14T22:35:40.203Z,9.10
2023-08-14T22:38:08.960Z,7.60
2023-08-14T22:40:36.865Z,7.80
2023-08-14T22:43:04.088Z,7.60
2023-08-14T22:48:04.305Z,7.00
2023-08-14T22:50:31.586Z,7.80
2023-08-14T22:52:58.909Z,7.80
2023-08-14T22:55:26.664Z,7.60
2023-08-14T22:57:59.632Z,8.70
2023-08-14T23:00:28.032Z,10.50
2023-08-14T23:02:59.170Z,9.30
2023-08-14T23:05:26.285Z,8.90
2023-08-14T23:07:54.712Z,8.50
2023-08-14T23:10:23.751Z,9.90
2023-08-14T23:12:50.868Z,7.70
2023-08-14T23:15:18.656Z,8.10
2023-08-14T23:17:45.809Z,7.60
2023-08-14T23:20:15.368Z,7.30
2023-08-14T23:22:42.643Z,8.00
2023-08-14T23:25:14.915Z,8.60
2023-08-14T23:27:44.068Z,9.20
2023-08-14T23:30:17.080Z,8.40
2023-08-14T23:32:46.753Z,8.10
2023-08-14T23:35:13.836Z,9.00
2023-08-14T23:37:41.056Z,7.80
2023-08-14T23:40:09.565Z,8.20
2023-08-14T23:42:45.978Z,8.80
2023-08-14T23:45:13.512Z,8.10
2023-08-14T23:47:40.612Z,8.20
2023-08-14T23:50:08.141Z,9.80
2023-08-14T23:52:35.716Z,8.40
2023-08-14T23:55:02.909Z,9.60
2023-08-14T23:57:30.044Z,9.40
2023-08-14T23:59:57.660Z,9.10
